Time;durP1;ratioP1;P1;durP2;ratioP2;P2;SDS_P1;SDS_P2;PMS_P1;PMS_P2;Temp;Humidity;BMP_temperature;BMP_pressure;BME280_temperature;BME280_humidity;BME280_pressure;Samples;Min_cycle;Max_cycle;Signal;HPM_P1;HPM_P2
2023/10/14 00:01:31;;;;;;;17.10;10.60;;;;;;;14.16;83.26;99879.46;78811;1296;3011750;-67
2023/10/14 00:03:57;;;;;;;17.00;10.20;;;;;;;14.13;83.28;99882.20;79424;1297;3011782;-64
2023/10/14 00:06:24;;;;;;;16.40;10.70;;;;;;;13.94;84.05;99885.59;79249;1297;3011655;-65
2023/10/14 00:08:57;;;;;;;21.80;12.40;;;;;;;13.71;84.06;99886.96;78042;1296;3052628;-63
2023/10/14 00:11:27;;;;;;;19.30;11.70;;;;;;;13.43;84.54;99888.94;79265;1297;3011537;-62
2023/10/14 00:13:56;;;;;;;11.90;8.00;;;;;;;13.22;85.06;99887.27;78310;1296;3050428;-64
2023/10/14 00:18:58;;;;;;;12.90;7.90;;;;;;;14.02;83.65;99881.73;78181;1297;3050993;-66
2023/10/14 00:21:25;;;;;;;14.10;9.10;;;;;;;13.96;84.33;99880.55;79550;1295;3013826;-63
2023/10/14 00:23:55;;;;;;;13.60;8.90;;;;;;;13.75;84.85;99881.73;79514;1297;3011859;-65
2023/10/14 00:26:24;;;;;;;21.40;11.90;;;;;;;13.48;85.54;99881.61;77985;1295;3056082;-63
2023/10/14 00:31:40;;;;;;;14.80;7.70;;;;;;;13.02;88.01;99877.14;78023;1300;3053876;-63
2023/10/14 00:34:07;;;;;;;13.00;8.90;;;;;;;13.57;86.89;99884.02;79434;1297;3013710;-64
2023/10/14 00:36:34;;;;;;;14.90;10.00;;;;;;;14.04;85.03;99881.02;79337;1297;3013324;-65
2023/10/14 00:39:12;;;;;;;14.00;8.80;;;;;;;14.05;84.97;99883.09;78020;1297;3068946;-62
2023/10/14 00:41:42;;;;;;;15.50;10.20;;;;;;;13.85;85.19;99883.02;78048;1299;3051949;-62
2023/10/14 00:44:11;;;;;;;16.80;11.00;;;;;;;13.58;85.75;99882.16;79466;1295;3011719;-60
2023/10/14 00:46:57;;;;;;;17.60;11.30;;;;;;;13.28;86.38;99880.60;78006;1299;3049318;-62
2023/10/14 00:49:31;;;;;;;11.60;7.80;;;;;;;13.05;87.53;99880.80;78076;1299;3053704;-63
2023/10/14 00:52:00;;;;;;;13.00;8.90;;;;;;;13.61;86.41;99881.44;79311;1296;3011759;-61
2023/10/14 00:57:09;;;;;;;15.50;10.10;;;;;;;14.08;85.04;99880.05;79302;1300;3011780;-65
2023/10/14 00:59:37;;;;;;;17.30;10.50;;;;;;;13.85;85.41;99877.89;78073;1296;3067926;-61
2023/10/14 01:02:09;;;;;;;19.40;12.40;;;;;;;13.60;86.02;99879.59;79389;1296;3013564;-66
2023/10/14 01:04:40;;;;;;;19.70;12.20;;;;;;;13.36;86.34;99879.39;78013;1300;3056531;-65
2023/10/14 01:07:13;;;;;;;16.60;9.00;;;;;;;13.18;87.19;99878.98;79417;1298;3011523;-64
2023/10/14 01:12:19;;;;;;;21.10;11.10;;;;;;;14.11;84.78;99883.20;79413;1296;3013004;-66
2023/10/14 01:14:58;;;;;;;18.90;10.70;;;;;;;14.11;84.48;99877.06;78059;1300;3052806;-63
2023/10/14 01:17:28;;;;;;;24.60;11.70;;;;;;;13.89;84.84;99875.75;77998;1297;3068892;-67
2023/10/14 01:19:59;;;;;;;22.40;12.40;;;;;;;13.64;85.55;99877.90;79347;1300;3011616;-68
2023/10/14 01:22:27;;;;;;;19.10;12.30;;;;;;;13.39;85.81;99875.19;78099;1297;3056573;-62
2023/10/14 01:24:55;;;;;;;17.70;9.50;;;;;;;13.20;86.43;99875.52;79218;1296;3013441;-62
2023/10/14 01:27:25;;;;;;;18.50;10.40;;;;;;;13.65;85.70;99876.61;79271;1295;3013008;-64
2023/10/14 01:29:52;;;;;;;16.00;10.00;;;;;;;14.14;84.49;99878.23;78197;1300;3053256;-64
2023/10/14 01:32:32;;;;;;;18.30;10.60;;;;;;;14.15;84.24;99877.10;79358;1295;3018976;-65
2023/10/14 01:35:00;;;;;;;18.90;11.50;;;;;;;13.93;84.37;99878.25;78090;1298;3051312;-65
2023/10/14 01:37:34;;;;;;;20.00;11.40;;;;;;;13.69;85.26;99881.24;79405;1297;3013297;-68
2023/10/14 01:42:49;;;;;;;14.80;9.40;;;;;;;13.26;85.91;99886.67;78168;1300;3050491;-62
2023/10/14 01:45:20;;;;;;;19.80;10.00;;;;;;;13.81;85.10;99884.36;79434;1297;3013302;-60
2023/10/14 01:48:00;;;;;;;14.80;10.40;;;;;;;14.29;83.92;99886.23;78099;1300;3068520;-65
2023/10/14 01:50:29;;;;;;;16.30;10.00;;;;;;;14.27;83.64;99884.04;78052;1300;3050979;-65
2023/10/14 01:53:00;;;;;;;19.60;11.10;;;;;;;14.07;84.29;99883.62;79521;1298;3014173;-64
2023/10/14 01:55:28;;;;;;;18.80;11.80;;;;;;;13.80;84.64;99883.67;77962;1300;3053562;-60
2023/10/14 01:57:56;;;;;;;20.00;11.50;;;;;;;13.58;85.11;99885.87;79357;1297;3013135;-60
2023/10/14 02:00:27;;;;;;;13.10;7.90;;;;;;;13.39;85.42;99882.52;79350;1297;3011542;-62
2023/10/14 02:03:00;;;;;;;16.70;10.40;;;;;;;13.83;84.83;99884.34;78188;1300;3070176;-62
2023/10/14 02:05:27;;;;;;;21.90;11.00;;;;;;;14.28;83.57;99882.92;79237;1297;3013625;-64
2023/10/14 02:07:55;;;;;;;14.80;10.00;;;;;;;14.27;83.42;99884.95;78090;1299;3056226;-62
2023/10/14 02:10:22;;;;;;;20.70;12.00;;;;;;;14.06;83.91;99884.95;79272;1296;3013407;-61
2023/10/14 02:12:49;;;;;;;19.30;12.20;;;;;;;13.80;84.51;99884.79;79172;1297;3013286;-65
2023/10/14 02:15:16;;;;;;;26.30;14.10;;;;;;;13.54;84.79;99886.70;78199;1300;3028459;-59
2023/10/14 02:17:43;;;;;;;15.10;9.60;;;;;;;13.33;85.29;99884.34;79317;1297;3013923;-62
2023/10/14 02:20:20;;;;;;;19.60;10.60;;;;;;;13.74;84.82;99886.55;79212;1297;3012568;-63
2023/10/14 02:22:49;;;;;;;18.60;10.60;;;;;;;14.18;83.61;99886.93;78052;1297;3056676;-65
2023/10/14 02:25:17;;;;;;;17.80;10.60;;;;;;;14.17;83.53;99888.09;79378;1300;3011516;-64
2023/10/14 02:27:46;;;;;;;20.20;12.20;;;;;;;13.93;84.18;99881.09;78926;1300;3013286;-66
2023/10/14 02:30:13;;;;;;;22.90;13.70;;;;;;;13.67;84.64;99885.10;79375;1297;3011563;-63
2023/10/14 02:32:40;;;;;;;21.30;13.40;;;;;;;13.42;85.18;99884.27;79353;1297;3011916;-64
2023/10/14 02:35:08;;;;;;;16.30;9.10;;;;;;;13.24;85.52;99878.23;77960;1298;3026206;-62
2023/10/14 02:37:37;;;;;;;16.50;10.60;;;;;;;13.66;85.45;99881.11;79384;1296;3014074;-68
2023/10/14 02:40:10;;;;;;;14.90;10.30;;;;;;;14.13;84.09;99875.49;79237;1297;3011712;-59
2023/10/14 02:42:39;;;;;;;19.60;11.20;;;;;;;14.15;83.82;99876.92;78104;1295;3052334;-62
2023/10/14 02:45:12;;;;;;;17.00;11.40;;;;;;;13.95;83.57;99878.29;79303;1316;3015976;-63
2023/10/14 02:47:40;;;;;;;19.90;12.40;;;;;;;13.62;82.89;99879.41;78171;1300;3052284;-64
2023/10/14 02:50:11;;;;;;;11.00;6.70;;;;;;;13.28;81.71;99878.63;79497;1300;3018266;-62
2023/10/14 02:52:39;;;;;;;14.50;7.50;;;;;;;12.91;81.39;99875.95;78106;1297;3055999;-67
2023/10/14 02:57:49;;;;;;;53.20;12.50;;;;;;;12.39;83.75;99876.53;78012;1300;3049837;-64
2023/10/14 03:00:32;;;;;;;30.40;9.90;;;;;;;12.92;83.30;99878.14;79289;1300;3013297;-62
2023/10/14 03:03:03;;;;;;;31.30;11.20;;;;;;;13.42;82.04;99873.02;77992;1300;3068537;-59
2023/10/14 03:05:36;;;;;;;28.50;10.90;;;;;;;13.39;82.12;99870.75;79306;1297;3011841;-60
2023/10/14 03:08:12;;;;;;;41.70;13.70;;;;;;;13.13;82.95;99870.66;78237;1298;3056707;-64
2023/10/14 03:10:42;;;;;;;34.00;14.20;;;;;;;12.85;84.35;99870.84;78121;1300;3049015;-62
2023/10/14 03:13:14;;;;;;;44.60;16.20;;;;;;;12.65;84.92;99868.45;79300;1297;3013020;-65
2023/10/14 03:15:44;;;;;;;33.10;11.90;;;;;;;12.50;85.92;99868.49;78214;1299;3049367;-65
2023/10/14 03:18:18;;;;;;;46.90;16.00;;;;;;;12.96;85.59;99868.92;79548;1297;3011646;-64
2023/10/14 03:23:22;;;;;;;47.60;16.10;;;;;;;13.45;84.18;99861.58;79370;1300;3013211;-61
2023/10/14 03:25:52;;;;;;;44.40;16.90;;;;;;;13.29;84.77;99865.23;78194;1300;3056869;-59
2023/10/14 03:28:20;;;;;;;45.40;18.60;;;;;;;13.07;84.76;99860.88;79405;1296;3012657;-63
2023/10/14 03:30:56;;;;;;;45.30;17.50;;;;;;;12.82;85.37;99860.17;79116;1298;3011376;-62
2023/10/14 03:33:27;;;;;;;23.60;10.40;;;;;;;12.55;86.08;99857.77;79195;1296;3013480;-63
2023/10/14 03:36:00;;;;;;;26.00;11.10;;;;;;;13.00;85.68;99856.53;79494;1297;3011911;-65
2023/10/14 03:39:18;;;;;;;26.30;12.00;;;;;;;13.47;84.07;99860.06;78108;1299;3051490;-62
2023/10/14 03:41:19;;;;;;;16.70;10.00;;;;;;;13.39;84.11;99860.35;78137;1300;3054022;-61
2023/10/14 03:46:59;;;;;;;17.40;10.00;;;;;;;12.96;85.43;99860.15;78034;1300;3051169;-65
2023/10/14 03:49:20;;;;;;;14.60;10.00;;;;;;;12.73;85.58;99863.17;78125;1300;3057191;-62
2023/10/14 03:51:56;;;;;;;10.70;6.40;;;;;;;12.57;85.56;99866.29;78255;1296;3049996;-64
2023/10/14 03:54:26;;;;;;;14.30;8.60;;;;;;;13.07;84.55;99872.41;78124;1298;3052500;-66
2023/10/14 03:56:52;;;;;;;15.10;9.00;;;;;;;13.51;83.45;99866.27;79444;1295;3013657;-62
2023/10/14 03:59:23;;;;;;;13.30;8.70;;;;;;;13.49;83.30;99862.54;79426;1297;3011716;-62
2023/10/14 04:01:58;;;;;;;13.40;9.60;;;;;;;13.26;83.72;99863.86;78180;1297;3067380;-63
2023/10/14 04:04:28;;;;;;;17.00;10.30;;;;;;;12.99;84.24;99863.27;78965;1295;3011532;-64
2023/10/14 04:09:43;;;;;;;11.10;7.20;;;;;;;12.64;85.75;99868.13;78126;1299;3050016;-70
2023/10/14 04:12:12;;;;;;;13.20;8.90;;;;;;;13.17;84.67;99872.33;78086;1297;3052228;-66
2023/10/14 04:14:40;;;;;;;13.50;8.80;;;;;;;13.59;83.41;99874.20;79375;1300;3016047;-65
2023/10/14 04:17:19;;;;;;;16.40;10.00;;;;;;;13.54;83.17;99874.32;79420;1300;3013196;-70
2023/10/14 04:19:54;;;;;;;14.80;10.00;;;;;;;13.30;83.30;99875.91;78227;1297;3068728;-64
2023/10/14 04:22:38;;;;;;;17.40;11.00;;;;;;;13.05;84.19;99874.65;77092;1297;3279628;-71
2023/10/14 04:27:45;;;;;;;16.70;7.70;;;;;;;12.56;85.66;99869.70;79223;1299;3015821;-64
2023/10/14 04:30:21;;;;;;;13.00;9.10;;;;;;;13.03;84.62;99868.68;80684;1297;3050141;-64
2023/10/14 04:35:25;;;;;;;13.00;7.90;;;;;;;13.36;82.91;99863.20;81927;1297;3011283;-62
2023/10/14 04:37:54;;;;;;;10.40;6.30;;;;;;;13.19;83.64;99860.78;80679;1300;3052780;-63
2023/10/14 04:43:49;;;;;;;10.10;5.30;;;;;;;12.70;82.72;99863.05;80666;1295;3056899;-65
2023/10/14 04:46:13;;;;;;;8.70;4.80;;;;;;;12.35;83.20;99867.30;80651;1297;3050165;-66
2023/10/14 04:48:50;;;;;;;5.80;4.30;;;;;;;12.19;83.36;99868.46;80531;1296;3052862;-67
2023/10/14 04:51:20;;;;;;;6.90;4.90;;;;;;;12.65;82.27;99864.38;80650;1296;3050737;-65
2023/10/14 04:53:49;;;;;;;7.80;5.80;;;;;;;13.13;80.11;99864.12;81912;1297;3011522;-67
2023/10/14 04:56:22;;;;;;;10.90;7.80;;;;;;;13.06;79.81;99865.45;80606;1297;3053117;-64
2023/10/14 04:58:52;;;;;;;11.80;7.80;;;;;;;12.84;80.43;99867.08;81887;1300;3011022;-70
2023/10/14 05:01:24;;;;;;;12.90;9.40;;;;;;;12.65;81.66;99865.97;80662;1295;3050526;-69
2023/10/14 05:03:57;;;;;;;17.00;11.10;;;;;;;12.48;82.32;99866.45;81926;1297;3011689;-68
2023/10/14 05:06:29;;;;;;;16.00;9.80;;;;;;;12.33;82.98;99866.17;80661;1296;3051007;-61
2023/10/14 05:08:56;;;;;;;14.10;8.10;;;;;;;12.23;84.22;99868.20;81927;1296;3011001;-66
2023/10/14 05:11:25;;;;;;;16.80;9.10;;;;;;;12.66;83.16;99864.67;80664;1297;3026086;-67
2023/10/14 05:14:14;;;;;;;20.60;10.90;;;;;;;13.17;81.23;99871.42;81947;1300;3012657;-71
2023/10/14 05:16:57;;;;;;;25.70;11.10;;;;;;;13.20;80.18;99873.04;80669;1295;3069153;-67
2023/10/14 05:19:29;;;;;;;23.10;10.80;;;;;;;12.96;80.57;99865.94;80673;1297;3051249;-66
2023/10/14 05:22:41;;;;;;;21.50;12.40;;;;;;;12.74;81.45;99865.08;81901;1297;3011394;-68
2023/10/14 05:24:52;;;;;;;29.20;12.90;;;;;;;12.51;82.67;99880.70;80619;1298;3048840;-64
2023/10/14 05:27:21;;;;;;;25.50;12.80;;;;;;;12.34;83.48;99882.11;80673;1295;3053030;-65
2023/10/14 05:29:53;;;;;;;22.20;8.50;;;;;;;12.26;84.07;99877.52;81944;1297;3012986;-61
2023/10/14 05:32:24;;;;;;;24.40;11.20;;;;;;;12.79;82.91;99871.94;80675;1297;3052068;-68
2023/10/14 05:34:51;;;;;;;22.30;11.50;;;;;;;13.32;80.80;99873.68;81916;1297;3012546;-64
2023/10/14 05:37:21;;;;;;;18.50;10.70;;;;;;;13.41;80.62;99876.79;81401;1296;3011854;-63
2023/10/14 05:39:50;;;;;;;26.90;12.60;;;;;;;13.28;81.10;99877.05;81934;1297;3011352;-67
2023/10/14 05:42:21;;;;;;;28.40;14.40;;;;;;;13.06;81.71;99878.14;80685;1297;3026456;-70
2023/10/14 05:44:47;;;;;;;29.80;15.00;;;;;;;12.84;82.61;99880.39;81931;1295;3011521;-63
2023/10/14 05:47:18;;;;;;;27.20;15.10;;;;;;;12.70;83.34;99885.85;81378;1297;3011416;-67
2023/10/14 05:49:45;;;;;;;35.60;12.70;;;;;;;12.61;83.97;99888.14;81932;1297;3013021;-72
2023/10/14 05:52:11;;;;;;;30.80;14.10;;;;;;;13.10;83.13;99887.36;81956;1297;3011396;-67
2023/10/14 05:54:40;;;;;;;31.10;14.00;;;;;;;13.64;81.64;99887.77;80660;1297;3051285;-63
2023/10/14 05:57:09;;;;;;;27.40;13.60;;;;;;;13.81;81.07;99885.78;81951;1298;3012526;-67
2023/10/14 05:59:37;;;;;;;30.60;15.00;;;;;;;13.73;81.22;99889.96;80630;1297;3051187;-62
2023/10/14 06:02:07;;;;;;;31.00;16.60;;;;;;;13.61;81.95;99890.45;81925;1297;3012797;-65
2023/10/14 06:04:39;;;;;;;34.20;17.10;;;;;;;13.51;82.09;99892.49;81377;1297;3011345;-66
2023/10/14 06:07:09;;;;;;;32.30;17.40;;;;;;;13.39;82.88;99893.98;81923;1300;3011337;-65
2023/10/14 06:09:37;;;;;;;26.70;12.40;;;;;;;13.35;83.49;99898.62;80688;1297;3068955;-71
2023/10/14 06:12:12;;;;;;;38.90;15.80;;;;;;;13.86;82.46;99894.37;81964;1297;3013162;-66
2023/10/14 06:14:44;;;;;;;32.70;15.80;;;;;;;14.35;80.08;99893.35;80665;1295;3049231;-69
2023/10/14 06:17:11;;;;;;;27.80;14.60;;;;;;;14.38;79.60;99891.91;81926;1297;3011318;-64
2023/10/14 06:19:39;;;;;;;34.80;15.90;;;;;;;14.22;79.43;99892.65;80646;1297;3026390;-63
2023/10/14 06:22:08;;;;;;;41.30;18.00;;;;;;;13.97;80.05;99893.83;81917;1300;3018111;-62
2023/10/14 06:24:35;;;;;;;39.10;18.30;;;;;;;13.80;81.01;99892.52;81926;1297;3011107;-69
2023/10/14 06:27:08;;;;;;;39.50;19.30;;;;;;;13.59;81.96;99891.23;80671;1297;3052087;-68
2023/10/14 06:29:35;;;;;;;25.30;13.10;;;;;;;13.47;82.31;99893.30;81906;1300;3011198;-68
2023/10/14 06:32:04;;;;;;;34.70;15.30;;;;;;;13.82;81.53;99898.89;80640;1296;3048799;-68
2023/10/14 06:34:35;;;;;;;37.20;15.60;;;;;;;14.32;79.12;99898.13;81929;1296;3012942;-68
2023/10/14 06:37:02;;;;;;;32.50;15.50;;;;;;;14.37;78.54;99893.34;80696;1295;3052043;-67
2023/10/14 06:39:31;;;;;;;33.50;16.80;;;;;;;14.22;78.90;99889.13;82000;1296;3018695;-63
2023/10/14 06:41:58;;;;;;;37.20;18.50;;;;;;;14.03;79.82;99890.29;82043;1295;3011529;-68
2023/10/14 06:44:27;;;;;;;35.50;18.70;;;;;;;13.84;80.79;99886.98;80734;1297;3057353;-70
2023/10/14 06:46:53;;;;;;;32.80;17.80;;;;;;;13.75;81.54;99888.80;82041;1296;3011356;-66
2023/10/14 06:49:22;;;;;;;38.90;19.50;;;;;;;13.65;82.16;99888.03;81961;1295;3011239;-68
2023/10/14 06:51:51;;;;;;;27.70;12.30;;;;;;;13.62;82.55;99889.33;80729;1298;3051621;-71
2023/10/14 06:54:25;;;;;;;25.00;13.90;;;;;;;14.10;81.25;99881.14;82039;1297;3013710;-68
2023/10/14 06:56:53;;;;;;;27.80;13.50;;;;;;;14.66;78.84;99878.86;80738;1297;3051779;-62
2023/10/14 06:59:20;;;;;;;29.90;15.00;;;;;;;14.65;77.42;99877.14;82034;1295;3018097;-70
2023/10/14 07:01:47;;;;;;;31.80;16.80;;;;;;;14.57;78.11;99875.44;81971;1295;3011449;-67
2023/10/14 07:04:16;;;;;;;33.20;17.80;;;;;;;14.47;78.55;99872.27;80726;1295;3026708;-67
2023/10/14 07:06:47;;;;;;;32.70;16.80;;;;;;;14.30;79.33;99872.36;81998;1295;3011430;-64
2023/10/14 07:09:18;;;;;;;30.30;17.00;;;;;;;14.15;79.77;99872.15;80696;1298;3054112;-72
2023/10/14 07:11:45;;;;;;;35.80;18.60;;;;;;;14.01;80.44;99870.50;82006;1295;3011236;-64
2023/10/14 07:14:14;;;;;;;22.20;12.20;;;;;;;13.94;80.47;99868.85;81458;1296;3011425;-69
2023/10/14 07:16:40;;;;;;;24.90;13.70;;;;;;;14.33;80.16;99859.81;82040;1295;3012757;-68
2023/10/14 07:19:07;;;;;;;25.40;13.80;;;;;;;14.94;77.95;99862.07;81959;1295;3011282;-72
2023/10/14 07:21:35;;;;;;;23.00;13.20;;;;;;;15.09;77.10;99857.83;80668;1296;3024905;-70
2023/10/14 07:24:05;;;;;;;26.30;15.30;;;;;;;15.01;76.90;99856.98;81999;1298;3012801;-73
2023/10/14 07:26:39;;;;;;;31.40;15.90;;;;;;;14.92;77.67;99859.19;80747;1295;3068681;-69
2023/10/14 07:29:06;;;;;;;29.30;16.70;;;;;;;14.89;77.86;99858.20;81953;1297;3011584;-64
2023/10/14 07:31:36;;;;;;;30.80;17.20;;;;;;;14.75;78.45;99853.77;80703;1295;3056036;-65
2023/10/14 07:34:03;;;;;;;31.10;14.90;;;;;;;14.69;79.26;99855.55;82004;1294;3011375;-65
2023/10/14 07:36:30;;;;;;;19.30;11.60;;;;;;;14.71;79.64;99856.65;82049;1294;3011430;-69
2023/10/14 07:39:02;;;;;;;24.20;12.40;;;;;;;15.29;79.10;99862.00;80710;1297;3051266;-64
2023/10/14 07:41:29;;;;;;;20.40;12.50;;;;;;;15.92;76.22;99854.98;81987;1295;3011302;-71
2023/10/14 07:43:57;;;;;;;22.90;12.60;;;;;;;16.03;76.04;99858.36;80756;1295;3068978;-68
2023/10/14 07:46:23;;;;;;;26.50;14.40;;;;;;;16.01;75.86;99858.39;82020;1295;3013127;-70
2023/10/14 07:48:53;;;;;;;26.50;14.50;;;;;;;15.85;76.57;99856.27;81940;1296;3011336;-68
2023/10/14 07:51:21;;;;;;;22.80;14.20;;;;;;;15.79;76.98;99855.79;80726;1298;3052804;-68
2023/10/14 07:53:47;;;;;;;26.80;15.60;;;;;;;15.75;77.20;99852.69;82044;1298;3012479;-68
2023/10/14 07:56:14;;;;;;;24.50;15.00;;;;;;;15.71;78.05;99853.56;81997;1296;3011877;-69
2023/10/14 07:58:42;;;;;;;20.00;11.60;;;;;;;15.62;78.75;99844.72;80731;1295;3067082;-70
2023/10/14 08:01:15;;;;;;;25.60;11.70;;;;;;;16.18;77.94;99843.60;81972;1296;3013103;-64
2023/10/14 08:03:43;;;;;;;22.70;12.10;;;;;;;16.74;75.99;99841.31;80730;1296;3050433;-69
2023/10/14 08:06:10;;;;;;;18.20;10.90;;;;;;;16.83;75.38;99837.25;81924;1297;3011374;-67
2023/10/14 08:08:47;;;;;;;20.60;12.70;;;;;;;16.79;75.31;99838.13;81940;1296;3011442;-71
2023/10/14 08:11:15;;;;;;;21.20;11.70;;;;;;;16.62;75.52;99838.56;80725;1300;3053703;-65
2023/10/14 08:13:42;;;;;;;23.70;12.80;;;;;;;16.43;76.06;99839.92;81982;1295;3013078;-71
2023/10/14 08:16:08;;;;;;;18.10;12.00;;;;;;;16.26;77.28;99843.55;81969;1296;3010705;-65
2023/10/14 08:18:36;;;;;;;21.80;13.80;;;;;;;16.22;77.50;99837.83;80723;1296;3025741;-68
2023/10/14 08:21:03;;;;;;;16.50;10.70;;;;;;;16.19;78.39;99840.60;81990;1296;3012831;-67
2023/10/14 08:23:29;;;;;;;17.00;9.50;;;;;;;16.68;77.44;99834.25;81949;1295;3011068;-62
2023/10/14 08:25:59;;;;;;;18.20;9.80;;;;;;;17.08;74.67;99835.44;80728;1298;3026191;-70
2023/10/14 08:28:32;;;;;;;19.20;11.40;;;;;;;17.14;74.17;99838.29;81947;1297;3011370;-71
2023/10/14 08:31:04;;;;;;;15.60;10.00;;;;;;;17.05;74.53;99836.03;80673;1298;3051438;-66
2023/10/14 08:33:30;;;;;;;17.00;10.40;;;;;;;17.06;74.91;99838.64;81951;1296;3011568;-70
2023/10/14 08:35:58;;;;;;;20.30;10.70;;;;;;;16.91;75.77;99839.64;80743;1298;3026457;-68
2023/10/14 08:38:27;;;;;;;18.80;10.50;;;;;;;16.86;75.83;99840.23;81928;1298;3013441;-67
2023/10/14 08:40:54;;;;;;;18.10;10.20;;;;;;;16.85;76.10;99836.45;81975;1295;3011402;-63
2023/10/14 08:43:35;;;;;;;20.80;10.10;;;;;;;16.87;76.11;99834.35;80748;1298;3044434;-66
2023/10/14 08:46:03;;;;;;;17.40;7.90;;;;;;;17.12;75.39;99828.40;80729;1296;3068184;-68
2023/10/14 08:48:29;;;;;;;15.70;8.20;;;;;;;17.59;74.08;99828.38;81981;1296;3013126;-67
2023/10/14 08:50:57;;;;;;;23.30;9.00;;;;;;;18.11;72.18;99821.41;81922;1295;3013309;-68
2023/10/14 08:53:25;;;;;;;23.80;10.20;;;;;;;18.20;71.33;99815.09;80748;1296;3051732;-66
2023/10/14 08:55:57;;;;;;;18.10;10.20;;;;;;;18.10;71.84;99818.56;81970;1298;3018690;-64
2023/10/14 08:58:26;;;;;;;20.50;10.10;;;;;;;18.01;71.87;99816.06;80673;1300;3053240;-62
2023/10/14 09:00:53;;;;;;;21.20;10.50;;;;;;;18.01;72.21;99811.55;82052;1297;3012614;-63
2023/10/14 09:03:20;;;;;;;21.70;10.20;;;;;;;17.91;72.31;99815.80;81970;1295;3011396;-64
2023/10/14 09:05:48;;;;;;;27.70;10.80;;;;;;;17.73;73.90;99810.58;80703;1295;3048690;-64
2023/10/14 09:08:15;;;;;;;23.20;10.40;;;;;;;17.64;74.47;99806.02;81995;1295;3018859;-66
2023/10/14 09:10:42;;;;;;;23.20;10.40;;;;;;;17.61;75.03;99808.63;82015;1295;3011188;-65
2023/10/14 09:13:11;;;;;;;19.70;7.90;;;;;;;17.52;75.70;99803.30;80738;1298;3052225;-65
2023/10/14 09:15:40;;;;;;;15.00;8.20;;;;;;;17.98;74.75;99800.36;81974;1298;3011173;-65
2023/10/14 09:18:13;;;;;;;21.30;9.00;;;;;;;18.48;72.40;99794.27;81915;1296;3011291;-66
2023/10/14 09:20:41;;;;;;;27.60;10.60;;;;;;;18.55;72.44;99791.84;80652;1297;3050432;-65
2023/10/14 09:23:40;;;;;;;19.70;9.80;;;;;;;18.46;72.80;99788.73;81956;1296;3012971;-72
2023/10/14 09:26:07;;;;;;;24.30;9.40;;;;;;;18.32;73.35;99788.52;80675;1295;3053461;-64
2023/10/14 09:28:35;;;;;;;22.20;10.30;;;;;;;18.13;74.22;99783.48;82022;1296;3011391;-68
2023/10/14 09:31:04;;;;;;;21.40;9.90;;;;;;;18.14;74.62;99786.02;81974;1298;3011270;-63
2023/10/14 09:33:34;;;;;;;19.60;10.40;;;;;;;18.31;73.86;99784.55;80708;1298;3057246;-61
2023/10/14 09:36:05;;;;;;;25.60;10.50;;;;;;;18.42;74.01;99787.50;81965;1296;3011395;-69
2023/10/14 09:38:33;;;;;;;16.60;7.80;;;;;;;18.51;73.72;99790.80;80706;1298;3048691;-64
2023/10/14 09:41:03;;;;;;;15.80;5.50;;;;;;;18.83;72.64;99787.73;82044;1299;3013340;-64
2023/10/14 09:43:33;;;;;;;19.20;6.20;;;;;;;19.10;71.55;99782.90;81440;1295;3011436;-64
2023/10/14 09:46:03;;;;;;;13.70;5.30;;;;;;;19.28;71.20;99776.39;82012;1295;3013333;-64
2023/10/14 09:48:34;;;;;;;10.60;5.40;;;;;;;19.19;70.78;99773.37;80692;1300;3056549;-62
2023/10/14 09:51:03;;;;;;;13.10;5.10;;;;;;;19.02;71.79;99772.39;81949;1297;3012758;-63
2023/10/14 09:53:35;;;;;;;8.10;3.60;;;;;;;18.93;72.14;99768.27;80625;1297;3051994;-64
2023/10/14 09:56:10;;;;;;;14.10;4.10;;;;;;;18.75;72.56;99766.48;81986;1295;3011355;-62
2023/10/14 09:58:43;;;;;;;9.70;3.60;;;;;;;18.52;73.22;99765.17;80706;1298;3053041;-67
2023/10/14 10:01:16;;;;;;;18.60;4.50;;;;;;;18.50;73.77;99761.40;81940;1300;3011574;-63
2023/10/14 10:03:48;;;;;;;11.70;4.20;;;;;;;18.47;74.20;99762.22;80762;1295;3069227;-63
2023/10/14 10:06:23;;;;;;;14.30;4.30;;;;;;;18.56;74.34;99762.83;81886;1298;3011381;-66
2023/10/14 10:09:17;;;;;;;9.50;3.80;;;;;;;18.60;74.63;99760.54;80760;1295;3056486;-66
2023/10/14 10:11:46;;;;;;;8.50;3.30;;;;;;;19.25;72.50;99758.36;80704;1295;3050223;-66
2023/10/14 10:14:16;;;;;;;8.30;2.90;;;;;;;19.38;71.28;99757.42;81909;1294;3012599;-65
2023/10/14 10:16:46;;;;;;;10.20;3.40;;;;;;;19.25;71.86;99757.52;80623;1301;3052101;-68
2023/10/14 10:19:13;;;;;;;13.80;3.90;;;;;;;18.76;73.61;99756.99;81854;1298;3011413;-67
2023/10/14 10:22:11;;;;;;;13.20;3.70;;;;;;;18.81;73.60;99757.95;81462;1295;3011374;-67
2023/10/14 10:24:42;;;;;;;8.50;3.60;;;;;;;18.80;73.72;99752.15;80782;1295;3052433;-69
2023/10/14 10:27:10;;;;;;;7.30;3.30;;;;;;;18.71;74.64;99754.19;82029;1295;3011161;-63
2023/10/14 10:29:47;;;;;;;8.70;3.50;;;;;;;18.49;75.37;99754.55;80755;1295;3025686;-67
2023/10/14 10:32:19;;;;;;;12.00;3.40;;;;;;;18.38;76.43;99755.34;80752;1295;3051321;-62
2023/10/14 10:35:07;;;;;;;7.80;2.90;;;;;;;18.39;76.91;99754.62;81971;1297;3011649;-65
2023/10/14 10:37:41;;;;;;;5.60;2.70;;;;;;;18.66;75.48;99749.00;80725;1298;3052286;-63
2023/10/14 10:40:11;;;;;;;8.90;2.60;;;;;;;19.03;74.09;99748.68;82020;1295;3011462;-61
2023/10/14 10:42:44;;;;;;;7.60;3.20;;;;;;;19.02;73.98;99745.75;80720;1296;3069471;-62
2023/10/14 10:45:15;;;;;;;7.20;3.20;;;;;;;18.93;74.70;99754.04;81942;1295;3011573;-68
2023/10/14 10:47:44;;;;;;;9.60;3.20;;;;;;;18.92;74.27;99753.91;80743;1295;3056352;-63
2023/10/14 10:50:15;;;;;;;11.10;3.50;;;;;;;18.82;74.68;99757.34;81983;1295;3012878;-65
2023/10/14 10:52:46;;;;;;;9.60;3.60;;;;;;;18.64;74.94;99755.42;80737;1297;3049370;-66
2023/10/14 10:55:14;;;;;;;10.40;3.10;;;;;;;18.33;76.12;99755.81;82021;1295;3011366;-63
2023/10/14 10:57:44;;;;;;;4.80;2.90;;;;;;;18.23;75.79;99751.70;80642;1299;3052701;-64
2023/10/14 11:00:11;;;;;;;8.40;3.40;;;;;;;18.23;76.30;99739.46;81962;1300;3012547;-63
2023/10/14 11:02:39;;;;;;;5.50;2.30;;;;;;;18.20;76.30;99740.65;81908;1296;3011260;-64
2023/10/14 11:05:07;;;;;;;8.90;2.90;;;;;;;18.55;74.74;99742.87;80758;1295;3048780;-66
2023/10/14 11:07:33;;;;;;;6.70;2.40;;;;;;;19.08;71.87;99743.08;82007;1295;3012652;-68
2023/10/14 11:10:00;;;;;;;8.90;3.20;;;;;;;19.02;71.48;99740.05;81997;1295;3011354;-65
2023/10/14 11:12:29;;;;;;;11.30;3.10;;;;;;;19.07;72.39;99728.49;80746;1295;3026095;-63
2023/10/14 11:14:58;;;;;;;9.80;3.60;;;;;;;19.24;70.98;99730.59;81959;1295;3013239;-65
2023/10/14 11:17:27;;;;;;;10.10;3.30;;;;;;;19.09;70.48;99727.18;81507;1295;3011214;-65
2023/10/14 11:19:53;;;;;;;11.10;5.20;;;;;;;18.96;70.65;99733.35;82013;1296;3012491;-65
2023/10/14 11:22:20;;;;;;;8.80;2.90;;;;;;;19.00;70.87;99726.10;81984;1295;3011230;-64
2023/10/14 11:24:47;;;;;;;10.90;3.20;;;;;;;19.00;69.82;99731.02;80703;1297;3026425;-65
2023/10/14 11:27:14;;;;;;;7.70;2.80;;;;;;;19.05;70.28;99723.28;81998;1298;3011668;-66
2023/10/14 11:29:40;;;;;;;5.30;2.70;;;;;;;19.05;69.84;99728.25;82013;1294;3011582;-65
2023/10/14 11:32:09;;;;;;;8.10;2.70;;;;;;;18.99;69.75;99729.72;80715;1298;3025976;-64
2023/10/14 11:34:35;;;;;;;6.20;3.30;;;;;;;19.05;69.35;99724.70;82028;1294;3012864;-64
2023/10/14 11:37:02;;;;;;;9.40;3.00;;;;;;;19.05;69.24;99719.04;82024;1295;3011352;-64
2023/10/14 11:39:32;;;;;;;6.90;3.30;;;;;;;18.95;68.78;99717.95;80755;1295;3026618;-64
2023/10/14 11:42:01;;;;;;;13.00;3.80;;;;;;;19.19;68.02;99716.52;82031;1295;3012546;-68
2023/10/14 11:44:29;;;;;;;8.60;3.10;;;;;;;19.15;68.32;99712.27;80768;1295;3028574;-62
2023/10/14 11:46:57;;;;;;;11.10;3.40;;;;;;;19.13;68.24;99712.08;82023;1295;3018663;-65
2023/10/14 11:49:23;;;;;;;8.20;2.50;;;;;;;19.17;67.68;99707.27;81926;1296;3011263;-66
2023/10/14 11:51:51;;;;;;;8.10;3.20;;;;;;;19.31;66.28;99705.15;80739;1295;3048585;-63